DIZUM EDLP-EDDV
Flight info
| Callsign | DIZUM |
|---|---|
| Flight time | 0h 24m |
| Altitude | 3500 |
| Route | HOTEL WHISKEY 1 |
| Aircraft | BE58/L-SDFGRY/C |
Departure
| Time | 2026-05-01 14:36 |
|---|---|
| Airport | Paderborn Lippstadt Airport (EDLP) |
Arrival
| Time | 2026-05-01 15:01 |
|---|---|
| Airport | Hannover Airport (EDDV) |
| Time | Latitude | Longitude | Altitude | Speed | Heading |
|---|---|---|---|---|---|
| 2026-05-01 14:22 | 51.61030 | 8.61666 | 725 ft | 0 kts | 237° |
| 2026-05-01 14:23 | 51.61030 | 8.61667 | 725 ft | 0 kts | 237° |
| 2026-05-01 14:24 | 51.61031 | 8.61667 | 725 ft | 0 kts | 237° |
| 2026-05-01 14:30 | 51.61031 | 8.61668 | 725 ft | 0 kts | 237° |
| 2026-05-01 14:31 | 51.61029 | 8.61664 | 725 ft | 3 kts | 237° |
| 2026-05-01 14:31 | 51.61026 | 8.61612 | 725 ft | 9 kts | 314° |
| 2026-05-01 14:32 | 51.61024 | 8.61535 | 725 ft | 11 kts | 233° |
| 2026-05-01 14:32 | 51.60987 | 8.61450 | 725 ft | 8 kts | 235° |
| 2026-05-01 14:32 | 51.60961 | 8.61377 | 725 ft | 11 kts | 242° |
| 2026-05-01 14:32 | 51.60970 | 8.61236 | 719 ft | 17 kts | 285° |
| 2026-05-01 14:33 | 51.60991 | 8.61082 | 713 ft | 10 kts | 292° |
| 2026-05-01 14:33 | 51.61038 | 8.61014 | 712 ft | 9 kts | 358° |
| 2026-05-01 14:33 | 51.61042 | 8.61014 | 712 ft | 0 kts | 3° |
| 2026-05-01 14:35 | 51.61060 | 8.61018 | 711 ft | 9 kts | 13° |
| 2026-05-01 14:35 | 51.61152 | 8.61061 | 705 ft | 14 kts | 352° |
| 2026-05-01 14:35 | 51.61192 | 8.61100 | 711 ft | 0 kts | 56° |
| 2026-05-01 14:36 | 51.61351 | 8.61482 | 706 ft | 79 kts | 56° |
| 2026-05-01 14:36 | 51.61746 | 8.62428 | 791 ft | 115 kts | 60° |
| 2026-05-01 14:36 | 51.62147 | 8.63500 | 1215 ft | 110 kts | 70° |
| 2026-05-01 14:36 | 51.62213 | 8.64703 | 1519 ft | 109 kts | 112° |
| 2026-05-01 14:37 | 51.61880 | 8.65835 | 1869 ft | 113 kts | 118° |
| 2026-05-01 14:37 | 51.61631 | 8.67013 | 2123 ft | 118 kts | 112° |
| 2026-05-01 14:37 | 51.61346 | 8.68375 | 2179 ft | 132 kts | 110° |
| 2026-05-01 14:37 | 51.61052 | 8.69788 | 2311 ft | 135 kts | 110° |
| 2026-05-01 14:38 | 51.60748 | 8.71266 | 2358 ft | 141 kts | 111° |
| 2026-05-01 14:38 | 51.60428 | 8.72804 | 2382 ft | 145 kts | 111° |
| 2026-05-01 14:38 | 51.60094 | 8.74352 | 2367 ft | 149 kts | 112° |
| 2026-05-01 14:38 | 51.59735 | 8.75917 | 2431 ft | 147 kts | 110° |
| 2026-05-01 14:39 | 51.59638 | 8.77583 | 2444 ft | 156 kts | 86° |
| 2026-05-01 14:39 | 51.60038 | 8.79212 | 2579 ft | 161 kts | 60° |
| 2026-05-01 14:39 | 51.60774 | 8.80596 | 2717 ft | 166 kts | 45° |
| 2026-05-01 14:39 | 51.61769 | 8.81598 | 2870 ft | 172 kts | 30° |
| 2026-05-01 14:40 | 51.62839 | 8.82421 | 3089 ft | 166 kts | 32° |
| 2026-05-01 14:40 | 51.63894 | 8.83299 | 3254 ft | 172 kts | 32° |
| 2026-05-01 14:40 | 51.64949 | 8.84186 | 3398 ft | 174 kts | 35° |
| 2026-05-01 14:40 | 51.66060 | 8.85115 | 3329 ft | 185 kts | 30° |
| 2026-05-01 14:41 | 51.67225 | 8.86015 | 3359 ft | 184 kts | 30° |
| 2026-05-01 14:41 | 51.68384 | 8.86873 | 3386 ft | 181 kts | 31° |
| 2026-05-01 14:41 | 51.69514 | 8.87741 | 3475 ft | 179 kts | 29° |
| 2026-05-01 14:41 | 51.70630 | 8.88592 | 3490 ft | 175 kts | 30° |
| 2026-05-01 14:42 | 51.71718 | 8.89437 | 3521 ft | 175 kts | 30° |
| 2026-05-01 14:42 | 51.72856 | 8.90323 | 3482 ft | 182 kts | 30° |
| 2026-05-01 14:42 | 51.73984 | 8.91165 | 3502 ft | 177 kts | 29° |
| 2026-05-01 14:42 | 51.75118 | 8.91988 | 3500 ft | 179 kts | 28° |
| 2026-05-01 14:43 | 51.75871 | 8.92528 | 3507 ft | 179 kts | 27° |
| 2026-05-01 14:43 | 51.76988 | 8.93342 | 3507 ft | 176 kts | 28° |
| 2026-05-01 14:43 | 51.78113 | 8.94169 | 3479 ft | 185 kts | 29° |
| 2026-05-01 14:43 | 51.79643 | 8.95258 | 3522 ft | 179 kts | 28° |
| 2026-05-01 14:44 | 51.80399 | 8.95803 | 3509 ft | 179 kts | 28° |
| 2026-05-01 14:44 | 51.82655 | 8.97440 | 3520 ft | 178 kts | 29° |
| 2026-05-01 14:44 | 51.83803 | 8.98281 | 3501 ft | 181 kts | 28° |
| 2026-05-01 14:45 | 51.84967 | 8.99133 | 3502 ft | 182 kts | 28° |
| 2026-05-01 14:45 | 51.87295 | 9.00880 | 3496 ft | 184 kts | 28° |
| 2026-05-01 14:45 | 51.88460 | 9.01739 | 3497 ft | 187 kts | 28° |
| 2026-05-01 14:46 | 51.89620 | 9.02607 | 3498 ft | 181 kts | 29° |
| 2026-05-01 14:46 | 51.91912 | 9.04266 | 3497 ft | 182 kts | 28° |
| 2026-05-01 14:46 | 51.93070 | 9.05101 | 3499 ft | 183 kts | 28° |
| 2026-05-01 14:47 | 51.94225 | 9.05957 | 3485 ft | 182 kts | 30° |
| 2026-05-01 14:47 | 51.95373 | 9.06786 | 3487 ft | 180 kts | 29° |
| 2026-05-01 14:47 | 51.96513 | 9.07607 | 3497 ft | 179 kts | 29° |
| 2026-05-01 14:48 | 51.98811 | 9.09269 | 3482 ft | 182 kts | 28° |
| 2026-05-01 14:48 | 51.99976 | 9.10111 | 3498 ft | 186 kts | 28° |
| 2026-05-01 14:48 | 52.02361 | 9.11854 | 3481 ft | 185 kts | 29° |
| 2026-05-01 14:49 | 52.04697 | 9.13561 | 3480 ft | 182 kts | 28° |
| 2026-05-01 14:49 | 52.06965 | 9.15206 | 3496 ft | 176 kts | 28° |
| 2026-05-01 14:50 | 52.08858 | 9.16573 | 3485 ft | 181 kts | 29° |
| 2026-05-01 14:50 | 52.11533 | 9.18567 | 3480 ft | 179 kts | 28° |
| 2026-05-01 14:51 | 52.12644 | 9.19403 | 3479 ft | 176 kts | 29° |
| 2026-05-01 14:51 | 52.14849 | 9.21065 | 3485 ft | 176 kts | 29° |
| 2026-05-01 14:52 | 52.17101 | 9.22709 | 3474 ft | 181 kts | 28° |
| 2026-05-01 14:52 | 52.18239 | 9.23545 | 3482 ft | 178 kts | 29° |
| 2026-05-01 14:52 | 52.20531 | 9.25234 | 3476 ft | 179 kts | 30° |
| 2026-05-01 14:53 | 52.21661 | 9.26057 | 3407 ft | 180 kts | 29° |
| 2026-05-01 14:53 | 52.22794 | 9.26896 | 3277 ft | 178 kts | 28° |
| 2026-05-01 14:53 | 52.23938 | 9.27753 | 3114 ft | 181 kts | 29° |
| 2026-05-01 14:53 | 52.25067 | 9.28663 | 2964 ft | 182 kts | 33° |
| 2026-05-01 14:54 | 52.26171 | 9.29631 | 2821 ft | 180 kts | 33° |
| 2026-05-01 14:54 | 52.27288 | 9.30603 | 2684 ft | 183 kts | 32° |
| 2026-05-01 14:54 | 52.28338 | 9.31714 | 2508 ft | 176 kts | 45° |
| 2026-05-01 14:54 | 52.29191 | 9.33050 | 2486 ft | 166 kts | 50° |
| 2026-05-01 14:55 | 52.29994 | 9.34387 | 2486 ft | 167 kts | 52° |
| 2026-05-01 14:55 | 52.30819 | 9.35737 | 2473 ft | 167 kts | 50° |
| 2026-05-01 14:55 | 52.31634 | 9.37087 | 2455 ft | 170 kts | 53° |
| 2026-05-01 14:55 | 52.32428 | 9.38565 | 2459 ft | 176 kts | 53° |
| 2026-05-01 14:56 | 52.33236 | 9.40073 | 2421 ft | 177 kts | 51° |
| 2026-05-01 14:56 | 52.34080 | 9.41537 | 2316 ft | 182 kts | 49° |
| 2026-05-01 14:56 | 52.35004 | 9.42988 | 2227 ft | 180 kts | 47° |
| 2026-05-01 14:56 | 52.35898 | 9.44329 | 2273 ft | 172 kts | 46° |
| 2026-05-01 14:57 | 52.36816 | 9.45607 | 2229 ft | 172 kts | 42° |
| 2026-05-01 14:57 | 52.38721 | 9.48056 | 2093 ft | 174 kts | 45° |
| 2026-05-01 14:57 | 52.39629 | 9.49379 | 1996 ft | 173 kts | 47° |
| 2026-05-01 14:58 | 52.40502 | 9.50714 | 1979 ft | 171 kts | 47° |
| 2026-05-01 14:58 | 52.41366 | 9.52044 | 1883 ft | 171 kts | 45° |
| 2026-05-01 14:58 | 52.42285 | 9.53308 | 1804 ft | 173 kts | 41° |
| 2026-05-01 14:58 | 52.43257 | 9.54446 | 1789 ft | 170 kts | 38° |
| 2026-05-01 14:59 | 52.44257 | 9.55494 | 1695 ft | 175 kts | 34° |
| 2026-05-01 14:59 | 52.45305 | 9.56512 | 1480 ft | 175 kts | 36° |
| 2026-05-01 14:59 | 52.46226 | 9.57744 | 1334 ft | 162 kts | 58° |
| 2026-05-01 14:59 | 52.46589 | 9.59376 | 1056 ft | 149 kts | 85° |
| 2026-05-01 15:00 | 52.46639 | 9.62533 | 583 ft | 132 kts | 95° |
| 2026-05-01 15:00 | 52.46596 | 9.64039 | 523 ft | 132 kts | 95° |
| 2026-05-01 15:00 | 52.46561 | 9.65558 | 405 ft | 131 kts | 95° |
| 2026-05-01 15:01 | 52.46519 | 9.66976 | 349 ft | 115 kts | 95° |
| 2026-05-01 15:01 | 52.46492 | 9.68205 | 213 ft | 101 kts | 96° |
| 2026-05-01 15:01 | 52.46465 | 9.69138 | 188 ft | 46 kts | 93° |
| 2026-05-01 15:01 | 52.46455 | 9.69420 | 187 ft | 15 kts | 94° |
| 2026-05-01 15:02 | 52.46449 | 9.69515 | 187 ft | 0 kts | 122° |
| 2026-05-01 15:02 | 52.46441 | 9.69522 | 191 ft | 4 kts | 187° |
| 2026-05-01 15:02 | 52.46402 | 9.69404 | 191 ft | 17 kts | 248° |
| 2026-05-01 15:03 | 52.46366 | 9.69271 | 188 ft | 8 kts | 210° |
| 2026-05-01 15:03 | 52.46318 | 9.69291 | 191 ft | 7 kts | 156° |
| 2026-05-01 15:03 | 52.46290 | 9.69298 | 193 ft | 4 kts | 229° |
| 2026-05-01 15:03 | 52.46284 | 9.69254 | 189 ft | 3 kts | 300° |
| 2026-05-01 15:04 | 52.46297 | 9.69247 | 192 ft | 4 kts | 359° |
| 2026-05-01 15:04 | 52.46302 | 9.69245 | 189 ft | 0 kts | 340° |
| 2026-05-01 15:05 | 52.46318 | 9.69271 | 200 ft | 8 kts | 69° |
| 2026-05-01 15:05 | 52.46338 | 9.69364 | 185 ft | 3 kts | 71° |
| 2026-05-01 15:05 | 52.46338 | 9.69365 | 185 ft | 0 kts | 72° |
| 2026-05-01 15:07 | 52.46338 | 9.69364 | 185 ft | 0 kts | 72° |
| 2026-05-01 15:14 | 52.46338 | 9.69363 | 185 ft | 0 kts | 72° |
| 2026-05-01 15:22 | 52.46338 | 9.69362 | 185 ft | 0 kts | 72° |
| 2026-05-01 15:30 | 52.46338 | 9.69361 | 185 ft | 0 kts | 72° |
| 2026-05-01 15:34 | 52.46337 | 9.69361 | 185 ft | 0 kts | 72° |